createdAt,value
2022-09-23T00:01:11.149Z,101484.44
2022-09-23T00:03:41.906Z,101490.34
2022-09-23T00:06:11.731Z,101490.84
2022-09-23T00:08:39.789Z,101482.94
2022-09-23T00:11:10.504Z,101483.69
2022-09-23T00:13:37.919Z,101490.75
2022-09-23T00:16:06.706Z,101486.38
2022-09-23T00:18:33.550Z,101481.13
2022-09-23T00:21:12.190Z,101476.69
2022-09-23T00:23:40.519Z,101480.22
2022-09-23T00:26:09.885Z,101477.75
2022-09-23T00:28:36.594Z,101476.69
2022-09-23T00:31:06.344Z,101478.00
2022-09-23T00:33:32.993Z,101473.31
2022-09-23T00:36:05.889Z,101471.34
2022-09-23T00:38:33.974Z,101465.94
2022-09-23T00:41:00.978Z,101467.56
2022-09-23T00:43:41.267Z,101467.47
2022-09-23T00:46:10.187Z,101463.59
2022-09-23T00:48:39.663Z,101451.69
2022-09-23T00:51:12.190Z,101464.84
2022-09-23T00:53:39.766Z,101460.25
2022-09-23T00:56:10.213Z,101459.19
2022-09-23T00:58:41.825Z,101459.34
2022-09-23T01:01:08.815Z,101458.75
2022-09-23T01:03:35.465Z,101460.03
2022-09-23T01:06:01.936Z,101455.81
2022-09-23T01:08:29.009Z,101453.09
2022-09-23T01:11:27.389Z,101448.84
2022-09-23T01:14:28.101Z,101444.75
2022-09-23T01:17:21.012Z,101442.28
2022-09-23T01:20:09.469Z,101433.06
2022-09-23T01:23:06.728Z,101438.84
2022-09-23T01:25:42.007Z,101436.72
2022-09-23T01:29:02.343Z,101431.06
2022-09-23T01:31:35.339Z,101426.25
2022-09-23T01:34:20.219Z,101427.50
2022-09-23T01:36:55.125Z,101422.31
2022-09-23T01:39:36.884Z,101424.59
2022-09-23T01:42:20.145Z,101425.88
2022-09-23T01:44:56.664Z,101417.66
2022-09-23T01:47:56.734Z,101419.78
2022-09-23T01:50:50.235Z,101411.91
2022-09-23T01:53:24.705Z,101418.88
2022-09-23T01:55:57.573Z,101416.88
2022-09-23T01:58:30.513Z,101416.88
2022-09-23T02:01:02.782Z,101411.38
2022-09-23T02:03:36.635Z,101406.09
2022-09-23T02:06:12.449Z,101405.38
2022-09-23T02:08:42.814Z,101406.34
2022-09-23T02:11:15.064Z,101404.13
2022-09-23T02:13:48.537Z,101406.03
2022-09-23T02:16:36.110Z,101397.56
2022-09-23T02:19:11.525Z,101396.16
2022-09-23T02:21:47.457Z,101398.28
2022-09-23T02:24:19.319Z,101397.03
2022-09-23T02:26:55.479Z,101400.81
2022-09-23T02:29:34.114Z,101394.56
2022-09-23T02:32:12.588Z,101390.44
2022-09-23T02:35:15.626Z,101386.97
2022-09-23T02:37:53.500Z,101387.44
2022-09-23T02:40:40.249Z,101383.09
2022-09-23T02:43:15.063Z,101385.78
2022-09-23T02:45:41.652Z,101381.69
2022-09-23T02:48:14.668Z,101382.31
2022-09-23T02:50:41.392Z,101381.16
2022-09-23T02:53:07.899Z,101386.31
2022-09-23T02:55:34.449Z,101380.09
2022-09-23T02:58:02.307Z,101383.38
2022-09-23T03:00:54.051Z,101386.06
2022-09-23T03:03:36.889Z,101387.16
2022-09-23T03:06:16.258Z,101376.56
2022-09-23T03:08:53.534Z,101376.13
2022-09-23T03:11:21.795Z,101379.63
2022-09-23T03:14:05.041Z,101379.53
2022-09-23T03:16:34.554Z,101379.44
2022-09-23T03:19:23.969Z,101374.84
2022-09-23T03:22:12.496Z,101375.06
2022-09-23T03:24:44.735Z,101367.78
2022-09-23T03:27:18.265Z,101363.19
2022-09-23T03:29:48.982Z,101367.78
2022-09-23T03:32:18.328Z,101364.59
2022-09-23T03:34:48.419Z,101364.25
2022-09-23T03:37:26.283Z,101366.63
2022-09-23T03:40:20.528Z,101364.72
2022-09-23T03:42:49.352Z,101359.53
2022-09-23T03:45:22.081Z,101359.31
2022-09-23T03:47:48.642Z,101356.13
2022-09-23T03:50:17.296Z,101354.50
2022-09-23T03:52:44.529Z,101354.50
2022-09-23T03:55:11.428Z,101359.06
2022-09-23T03:57:37.942Z,101342.41
2022-09-23T04:00:07.143Z,101349.94
2022-09-23T04:02:40.828Z,101344.06
2022-09-23T04:05:08.909Z,101342.97
2022-09-23T04:07:35.547Z,101343.81
2022-09-23T04:10:02.096Z,101330.16
2022-09-23T04:12:28.558Z,101329.81
2022-09-23T04:14:54.963Z,101324.41
2022-09-23T04:17:21.428Z,101322.53
2022-09-23T04:19:48.281Z,101323.13
2022-09-23T04:22:14.724Z,101319.00
2022-09-23T04:24:41.248Z,101321.94
2022-09-23T04:27:07.660Z,101312.78
2022-09-23T04:29:34.080Z,101314.66
2022-09-23T04:32:00.817Z,101315.47
2022-09-23T04:34:27.382Z,101307.13
2022-09-23T04:36:53.814Z,101309.03
2022-09-23T04:39:20.749Z,101311.84
2022-09-23T04:41:48.523Z,101306.66
2022-09-23T04:44:15.585Z,101301.50
2022-09-23T04:46:43.864Z,101308.53
2022-09-23T04:49:10.660Z,101309.13
2022-09-23T04:51:37.209Z,101312.41
2022-09-23T04:54:03.819Z,101308.88
2022-09-23T04:56:33.941Z,101304.06
2022-09-23T04:59:01.802Z,101310.13
2022-09-23T05:01:31.163Z,101304.41
2022-09-23T05:04:02.354Z,101304.41
2022-09-23T05:06:31.464Z,101314.75
2022-09-23T05:08:59.596Z,101311.47
2022-09-23T05:11:27.036Z,101310.63
2022-09-23T05:13:54.915Z,101313.22
2022-09-23T05:16:23.328Z,101305.34
2022-09-23T05:18:50.875Z,101299.22
2022-09-23T05:21:20.509Z,101302.25
2022-09-23T05:23:55.658Z,101299.31
2022-09-23T05:26:25.317Z,101299.88
2022-09-23T05:28:53.017Z,101304.00
2022-09-23T05:31:24.835Z,101294.84
2022-09-23T05:33:57.403Z,101298.69
2022-09-23T05:36:25.409Z,101304.44
2022-09-23T05:38:53.654Z,101308.34
2022-09-23T05:41:23.143Z,101304.53
2022-09-23T05:43:54.048Z,101309.25
2022-09-23T05:46:29.529Z,101299.31
2022-09-23T05:49:02.109Z,101297.78
2022-09-23T05:51:31.141Z,101300.59
2022-09-23T05:53:59.304Z,101298.78
2022-09-23T05:56:27.924Z,101300.53
2022-09-23T05:58:56.757Z,101299.56
2022-09-23T06:01:25.448Z,101298.00
2022-09-23T06:03:53.422Z,101294.56
2022-09-23T06:06:27.780Z,101303.50
2022-09-23T06:08:54.777Z,101292.41
2022-09-23T06:11:21.665Z,101295.44
2022-09-23T06:13:49.488Z,101292.81
2022-09-23T06:16:16.332Z,101291.28
2022-09-23T06:18:45.432Z,101303.50
2022-09-23T06:21:14.912Z,101300.31
2022-09-23T06:23:42.156Z,101292.19
2022-09-23T06:26:11.783Z,101297.91
2022-09-23T06:28:40.977Z,101301.72
2022-09-23T06:31:14.874Z,101292.00
2022-09-23T06:33:42.701Z,101290.88
2022-09-23T06:36:10.341Z,101291.53
2022-09-23T06:38:44.152Z,101291.84
2022-09-23T06:41:13.158Z,101296.53
2022-09-23T06:43:39.698Z,101293.66
2022-09-23T06:46:07.467Z,101303.44
2022-09-23T06:48:37.605Z,101295.69
2022-09-23T06:51:07.167Z,101296.91
2022-09-23T06:53:34.479Z,101295.03
2022-09-23T06:56:06.317Z,101305.88
2022-09-23T06:58:35.443Z,101297.25
2022-09-23T07:01:07.219Z,101292.44
2022-09-23T07:03:34.937Z,101295.22
2022-09-23T07:06:02.385Z,101291.19
2022-09-23T07:08:30.743Z,101292.31
2022-09-23T07:10:59.621Z,101292.50
2022-09-23T07:13:26.739Z,101284.66
2022-09-23T07:15:59.038Z,101292.63
2022-09-23T07:18:26.530Z,101289.47
2022-09-23T07:20:53.899Z,101297.47
2022-09-23T07:23:21.052Z,101293.78
2022-09-23T07:25:50.443Z,101297.19
2022-09-23T07:28:17.482Z,101295.63
2022-09-23T07:30:54.889Z,101295.47
2022-09-23T07:33:32.122Z,101292.38
2022-09-23T07:35:59.533Z,101292.22
2022-09-23T07:38:30.097Z,101288.50
2022-09-23T07:41:05.211Z,101294.84
2022-09-23T07:43:32.469Z,101287.56
2022-09-23T07:46:05.011Z,101297.72
2022-09-23T07:48:34.387Z,101282.84
2022-09-23T07:51:10.254Z,101286.13
2022-09-23T07:53:37.082Z,101285.63
2022-09-23T07:56:07.641Z,101281.28
2022-09-23T07:58:35.334Z,101279.16
2022-09-23T08:01:07.609Z,101275.94
2022-09-23T08:03:35.188Z,101278.13
2022-09-23T08:06:12.505Z,101284.66
2022-09-23T08:08:43.668Z,101282.78
2022-09-23T08:11:13.159Z,101284.16
2022-09-23T08:13:40.460Z,101276.28
2022-09-23T08:16:07.136Z,101274.69
2022-09-23T08:18:34.254Z,101283.13
2022-09-23T08:21:00.891Z,101286.13
2022-09-23T08:23:27.717Z,101290.81
2022-09-23T08:26:02.437Z,101289.19
2022-09-23T08:28:29.074Z,101290.81
2022-09-23T08:30:56.908Z,101285.09
2022-09-23T08:33:24.405Z,101285.31
2022-09-23T08:35:52.295Z,101288.03
2022-09-23T08:38:20.469Z,101288.00
2022-09-23T08:40:49.567Z,101287.97
2022-09-23T08:43:26.353Z,101291.53
2022-09-23T08:45:55.333Z,101280.59
2022-09-23T08:48:31.289Z,101278.41
2022-09-23T08:51:12.315Z,101287.09
2022-09-23T08:53:39.229Z,101284.94
2022-09-23T08:56:26.000Z,101274.53
2022-09-23T08:59:09.383Z,101283.25
2022-09-23T09:01:43.873Z,101275.00
2022-09-23T09:04:16.434Z,101271.41
2022-09-23T09:07:00.125Z,101267.31
2022-09-23T09:09:40.046Z,101272.66
2022-09-23T09:12:32.360Z,101266.78
2022-09-23T09:15:06.945Z,101265.09
2022-09-23T09:17:36.450Z,101258.44
2022-09-23T09:20:21.483Z,101258.41
2022-09-23T09:22:54.177Z,101260.16
2022-09-23T09:25:37.910Z,101263.84
2022-09-23T09:28:30.804Z,101261.44
2022-09-23T09:31:02.699Z,101256.47
2022-09-23T09:33:40.731Z,101258.69
2022-09-23T09:36:31.806Z,101253.75
2022-09-23T09:38:59.598Z,101253.72
2022-09-23T09:41:30.977Z,101250.06
2022-09-23T09:44:01.460Z,101255.81
2022-09-23T09:46:39.791Z,101249.47
2022-09-23T09:52:26.855Z,101244.44
2022-09-23T09:54:53.495Z,101241.88
2022-09-23T09:57:35.313Z,101232.28
2022-09-23T10:00:25.722Z,101233.13
2022-09-23T10:02:59.705Z,101230.00
2022-09-23T10:05:31.172Z,101229.69
2022-09-23T10:08:22.893Z,101228.31
2022-09-23T10:10:58.646Z,101223.25
2022-09-23T10:13:27.284Z,101217.03
2022-09-23T10:15:55.028Z,101214.09
2022-09-23T10:18:37.453Z,101217.81
2022-09-23T10:21:15.880Z,101215.56
2022-09-23T10:23:44.722Z,101214.19
2022-09-23T10:26:13.974Z,101203.22
2022-09-23T10:28:52.377Z,101207.69
2022-09-23T10:31:30.115Z,101205.97
2022-09-23T10:34:02.423Z,101211.66
2022-09-23T10:36:31.737Z,101199.16
2022-09-23T10:39:23.066Z,101203.75
2022-09-23T10:42:26.899Z,101201.19
2022-09-23T10:45:25.645Z,101197.41
2022-09-23T10:48:00.722Z,101193.94
2022-09-23T10:50:47.819Z,101191.94
2022-09-23T10:53:36.657Z,101190.00
2022-09-23T10:56:21.737Z,101186.94
2022-09-23T10:59:27.949Z,101181.44
2022-09-23T11:02:35.809Z,101187.00
2022-09-23T11:05:15.623Z,101187.41
2022-09-23T11:08:06.750Z,101184.16
2022-09-23T11:10:48.903Z,101178.03
2022-09-23T11:13:37.728Z,101178.47
2022-09-23T11:16:21.598Z,101174.53
2022-09-23T11:19:25.627Z,101170.28
2022-09-23T11:35:19.390Z,101156.91
2022-09-23T11:37:57.066Z,101157.22
2022-09-23T11:40:30.608Z,101154.66
2022-09-23T11:43:01.434Z,101156.91
2022-09-23T11:45:36.534Z,101143.97
2022-09-23T11:48:13.660Z,101142.84
2022-09-23T11:50:49.452Z,101134.66
2022-09-23T11:53:23.699Z,101136.69
2022-09-23T11:56:04.867Z,101136.59
2022-09-23T11:58:42.671Z,101129.38
2022-09-23T12:01:37.138Z,101129.66
2022-09-23T12:04:19.212Z,101129.75
2022-09-23T12:06:52.459Z,101127.06
2022-09-23T12:09:53.998Z,101126.09
2022-09-23T12:12:48.722Z,101125.56
2022-09-23T12:15:34.336Z,101120.00
2022-09-23T12:18:23.273Z,101115.13
2022-09-23T12:21:02.919Z,101115.44
2022-09-23T12:23:39.508Z,101116.53
2022-09-23T12:26:12.578Z,101115.25
2022-09-23T12:28:44.422Z,101105.00
2022-09-23T12:31:16.590Z,101097.94
2022-09-23T12:33:54.051Z,101105.41
2022-09-23T12:36:26.881Z,101101.56
2022-09-23T12:39:01.973Z,101105.94
2022-09-23T12:41:40.804Z,101109.00
2022-09-23T12:44:31.614Z,101100.03
2022-09-23T12:47:25.654Z,101097.38
2022-09-23T12:49:56.551Z,101094.06
2022-09-23T12:52:29.770Z,101096.63
2022-09-23T12:55:25.976Z,101085.50
2022-09-23T12:57:52.419Z,101088.72
2022-09-23T13:00:26.449Z,101084.38
2022-09-23T13:03:17.261Z,101091.44
2022-09-23T13:06:06.185Z,101080.38
2022-09-23T13:08:38.360Z,101084.16
2022-09-23T13:11:13.140Z,101079.34
2022-09-23T13:13:43.392Z,101079.50
2022-09-23T13:16:26.151Z,101077.13
2022-09-23T13:18:54.542Z,101080.22
2022-09-23T13:21:58.909Z,101075.81
2022-09-23T13:24:29.038Z,101070.81
2022-09-23T13:27:06.531Z,101079.66
2022-09-23T13:29:50.127Z,101074.78
2022-09-23T13:32:20.617Z,101074.28
2022-09-23T13:34:58.509Z,101063.16
2022-09-23T13:37:29.981Z,101068.47
2022-09-23T13:40:10.508Z,101061.00
2022-09-23T13:42:40.591Z,101059.06
2022-09-23T13:45:17.085Z,101062.34
2022-09-23T13:47:45.616Z,101059.28
2022-09-23T13:50:23.281Z,101061.53
2022-09-23T13:52:55.328Z,101060.72
2022-09-23T13:55:39.176Z,101053.94
2022-09-23T13:58:23.782Z,101063.97
2022-09-23T14:00:51.387Z,101054.88
2022-09-23T14:03:23.714Z,101053.09
2022-09-23T14:05:51.951Z,101051.97
2022-09-23T14:08:19.588Z,101055.72
2022-09-23T14:10:46.859Z,101050.59
2022-09-23T14:13:25.993Z,101052.81
2022-09-23T14:15:55.875Z,101046.19
2022-09-23T14:18:29.228Z,101045.84
2022-09-23T14:20:55.913Z,101042.78
2022-09-23T14:23:22.437Z,101044.72
2022-09-23T14:25:51.322Z,101035.13
2022-09-23T14:28:20.529Z,101037.88
2022-09-23T14:30:48.118Z,101032.84
2022-09-23T14:33:22.371Z,101027.03
2022-09-23T14:35:52.517Z,101028.63
2022-09-23T14:38:47.898Z,101026.56
2022-09-23T14:41:24.168Z,101028.97
2022-09-23T14:43:50.579Z,101028.81
2022-09-23T14:46:19.631Z,101032.75
2022-09-23T14:49:06.028Z,101022.50
2022-09-23T14:51:40.894Z,101026.81
2022-09-23T14:54:43.951Z,101018.88
2022-09-23T14:57:22.591Z,101022.88
2022-09-23T15:00:15.943Z,101017.63
2022-09-23T15:02:45.930Z,101017.81
2022-09-23T15:05:23.452Z,101016.63
2022-09-23T15:07:52.946Z,101020.31
2022-09-23T15:10:28.062Z,101011.59
2022-09-23T15:13:05.333Z,101014.66
2022-09-23T15:15:33.285Z,101008.59
2022-09-23T15:18:11.217Z,101006.16
2022-09-23T15:20:37.843Z,101003.13
2022-09-23T15:23:04.511Z,100994.34
2022-09-23T15:25:41.741Z,100989.16
2022-09-23T15:28:08.158Z,100990.97
2022-09-23T15:30:36.482Z,100994.53
2022-09-23T15:33:03.206Z,100986.13
2022-09-23T15:35:33.251Z,100986.44
2022-09-23T15:38:03.730Z,100986.06
2022-09-23T15:40:37.395Z,100983.91
2022-09-23T15:43:21.227Z,100980.97
2022-09-23T15:46:04.389Z,100974.81
2022-09-23T15:48:39.309Z,100977.38
2022-09-23T15:51:09.698Z,100979.59
2022-09-23T15:53:39.267Z,100974.72
2022-09-23T15:56:06.219Z,100976.66
2022-09-23T15:58:33.285Z,100980.22
2022-09-23T16:01:01.176Z,100981.66
2022-09-23T16:03:29.677Z,100971.47
2022-09-23T16:06:01.280Z,100973.84
2022-09-23T16:08:37.289Z,100967.34
2022-09-23T16:11:05.449Z,100966.03
2022-09-23T16:13:33.278Z,100969.72
2022-09-23T16:16:04.481Z,100975.31
2022-09-23T16:18:31.903Z,100968.00
2022-09-23T16:20:59.420Z,100967.22
2022-09-23T16:23:38.802Z,100974.44
2022-09-23T16:26:13.885Z,100971.78
2022-09-23T16:28:40.385Z,100974.34
2022-09-23T16:31:07.144Z,100969.47
2022-09-23T16:33:33.745Z,100975.28
2022-09-23T16:36:03.108Z,100970.72
2022-09-23T16:38:33.238Z,100964.53
2022-09-23T16:41:00.451Z,100963.53
2022-09-23T16:43:32.017Z,100969.63
2022-09-23T16:45:59.438Z,100963.75
2022-09-23T16:48:25.966Z,100963.56
2022-09-23T16:50:53.997Z,100968.31
2022-09-23T16:53:20.658Z,100968.63
2022-09-23T16:55:47.194Z,100964.38
2022-09-23T16:58:13.677Z,100960.88
2022-09-23T17:00:59.292Z,100957.63
2022-09-23T17:03:40.832Z,100958.25
2022-09-23T17:06:12.149Z,100961.88
2022-09-23T17:08:40.685Z,100965.56
2022-09-23T17:11:08.493Z,100957.94
2022-09-23T17:13:35.524Z,100964.03
2022-09-23T17:16:03.090Z,100960.06
2022-09-23T17:18:30.049Z,100956.59
2022-09-23T17:20:59.380Z,100955.59
2022-09-23T17:23:29.223Z,100952.94
2022-09-23T17:25:55.711Z,100952.13
2022-09-23T17:28:22.185Z,100956.91
2022-09-23T17:30:51.832Z,100961.03
2022-09-23T17:33:19.366Z,100963.56
2022-09-23T17:35:45.771Z,100955.94
2022-09-23T17:38:12.228Z,100963.97
2022-09-23T17:40:40.410Z,100956.03
2022-09-23T17:43:07.800Z,100946.53
2022-09-23T17:45:37.378Z,100954.81
2022-09-23T17:48:04.028Z,100959.56
2022-09-23T17:50:31.236Z,100951.94
2022-09-23T17:53:02.603Z,100954.19
2022-09-23T17:55:29.187Z,100948.50
2022-09-23T17:57:55.625Z,100958.94
2022-09-23T18:00:22.692Z,100950.50
2022-09-23T18:02:52.216Z,100957.69
2022-09-23T18:05:18.723Z,100959.59
2022-09-23T18:07:45.211Z,100956.66
2022-09-23T18:10:11.708Z,100955.31
2022-09-23T18:12:38.127Z,100955.91
2022-09-23T18:15:04.933Z,100954.31
2022-09-23T18:17:31.474Z,100958.44
2022-09-23T18:19:58.268Z,100961.72
2022-09-23T18:22:24.765Z,100962.03
2022-09-23T18:24:51.229Z,100957.69
2022-09-23T18:27:17.712Z,100954.41
2022-09-23T18:29:44.132Z,100956.13
2022-09-23T18:32:14.054Z,100957.53
2022-09-23T18:34:41.025Z,100953.47
2022-09-23T18:37:15.412Z,100955.69
2022-09-23T18:39:42.841Z,100954.84
2022-09-23T18:42:09.271Z,100945.34
2022-09-23T18:44:36.455Z,100947.88
2022-09-23T18:47:04.868Z,100953.34
2022-09-23T18:49:50.068Z,100951.47
2022-09-23T18:52:16.515Z,100950.13
2022-09-23T18:54:43.952Z,100947.69
2022-09-23T18:57:13.114Z,100952.66
2022-09-23T18:59:39.972Z,100953.25
2022-09-23T19:02:06.615Z,100958.47
2022-09-23T19:04:33.549Z,100950.06
2022-09-23T19:07:00.373Z,100951.47
2022-09-23T19:09:28.329Z,100952.06
2022-09-23T19:11:55.788Z,100951.84
2022-09-23T19:14:22.257Z,100951.31
2022-09-23T19:16:51.465Z,100945.63
2022-09-23T19:19:17.932Z,100943.47
2022-09-23T19:21:44.387Z,100954.69
2022-09-23T19:24:15.444Z,100947.38
2022-09-23T19:26:42.519Z,100945.75
2022-09-23T19:29:14.525Z,100948.50
2022-09-23T19:31:42.045Z,100944.72
2022-09-23T19:34:13.175Z,100943.66
2022-09-23T19:36:42.559Z,100950.53
2022-09-23T19:39:18.365Z,100942.09
2022-09-23T19:41:46.049Z,100948.69
2022-09-23T19:44:12.845Z,100938.84
2022-09-23T19:46:42.820Z,100936.41
2022-09-23T19:49:11.048Z,100929.31
2022-09-23T19:51:38.916Z,100925.25
2022-09-23T19:54:07.266Z,100929.91
2022-09-23T19:56:35.482Z,100919.56
2022-09-23T19:59:04.631Z,100923.38
2022-09-23T20:01:32.893Z,100922.34
2022-09-23T20:04:00.007Z,100921.56
2022-09-23T20:06:34.071Z,100915.53
2022-09-23T20:09:03.359Z,100915.84
2022-09-23T20:11:32.178Z,100908.75
2022-09-23T20:14:06.650Z,100902.22
2022-09-23T20:16:37.186Z,100909.13
2022-09-23T20:19:05.118Z,100906.66
2022-09-23T20:21:33.454Z,100899.34
2022-09-23T20:24:00.688Z,100892.25
2022-09-23T20:26:45.926Z,100890.91
2022-09-23T20:29:12.443Z,100898.31
2022-09-23T20:31:40.443Z,100895.88
2022-09-23T20:34:08.292Z,100897.25
2022-09-23T20:36:41.327Z,100891.22
2022-09-23T20:39:09.834Z,100891.53
2022-09-23T20:41:38.336Z,100890.78
2022-09-23T20:44:09.427Z,100887.28
2022-09-23T20:46:36.162Z,100886.75
2022-09-23T20:49:03.863Z,100899.31
2022-09-23T20:51:33.491Z,100891.94
2022-09-23T20:54:00.641Z,100886.25
2022-09-23T20:56:28.081Z,100886.53
2022-09-23T20:58:59.836Z,100897.16
2022-09-23T21:01:27.916Z,100881.88
2022-09-23T21:03:55.805Z,100891.19
2022-09-23T21:06:26.064Z,100888.72
2022-09-23T21:08:55.818Z,100884.13
2022-09-23T21:11:22.509Z,100888.78
2022-09-23T21:13:51.307Z,100882.50
2022-09-23T21:16:19.949Z,100892.31
2022-09-23T21:18:48.002Z,100881.47
2022-09-23T21:21:15.004Z,100885.81
2022-09-23T21:23:43.279Z,100881.47
2022-09-23T21:26:11.288Z,100881.75
2022-09-23T21:28:39.964Z,100879.59
2022-09-23T21:31:25.235Z,100880.16
2022-09-23T21:33:56.873Z,100878.56
2022-09-23T21:36:24.561Z,100876.69
2022-09-23T21:38:51.894Z,100876.16
2022-09-23T21:41:19.379Z,100876.44
2022-09-23T21:43:46.014Z,100888.44
2022-09-23T21:46:14.756Z,100882.47
2022-09-23T21:48:42.260Z,100879.75
2022-09-23T21:51:11.850Z,100884.09
2022-09-23T21:53:39.603Z,100878.09
2022-09-23T21:56:15.735Z,100882.25
2022-09-23T21:58:44.757Z,100881.97
2022-09-23T22:01:20.339Z,100887.97
2022-09-23T22:03:54.990Z,100885.78
2022-09-23T22:06:24.091Z,100889.31
2022-09-23T22:08:59.648Z,100887.69
2022-09-23T22:11:50.523Z,100892.59
2022-09-23T22:14:19.713Z,100889.59
2022-09-23T22:16:46.321Z,100877.63
2022-09-23T22:19:14.707Z,100893.63
2022-09-23T22:21:42.801Z,100887.44
2022-09-23T22:24:10.623Z,100887.97
2022-09-23T22:26:42.918Z,100885.81
2022-09-23T22:29:30.796Z,100885.31
2022-09-23T22:32:17.242Z,100885.34
2022-09-23T22:34:53.199Z,100882.63
2022-09-23T22:37:25.423Z,100883.94
2022-09-23T22:39:51.910Z,100882.56
2022-09-23T22:42:21.138Z,100877.13
2022-09-23T22:44:48.217Z,100881.47
2022-09-23T22:47:15.493Z,100878.22
2022-09-23T22:49:42.823Z,100875.47
2022-09-23T22:52:11.202Z,100878.22
2022-09-23T22:54:38.436Z,100879.84
2022-09-23T22:57:09.063Z,100877.13
2022-09-23T22:59:37.422Z,100861.03
2022-09-23T23:02:05.274Z,100874.13
2022-09-23T23:04:32.453Z,100877.13
2022-09-23T23:06:59.409Z,100873.88
2022-09-23T23:09:26.191Z,100874.16
2022-09-23T23:11:52.791Z,100881.25
2022-09-23T23:14:19.399Z,100876.09
2022-09-23T23:16:46.363Z,100876.03
2022-09-23T23:19:16.704Z,100876.28
2022-09-23T23:21:44.655Z,100880.41
2022-09-23T23:24:16.014Z,100874.97
2022-09-23T23:26:43.275Z,100871.72
2022-09-23T23:29:11.784Z,100877.16
2022-09-23T23:31:38.582Z,100870.06
2022-09-23T23:34:08.276Z,100863.53
2022-09-23T23:36:34.957Z,100863.53
2022-09-23T23:39:01.849Z,100866.59
2022-09-23T23:41:29.492Z,100862.50
2022-09-23T23:43:58.810Z,100869.88
2022-09-23T23:46:27.494Z,100867.38
2022-09-23T23:48:55.221Z,100878.25
2022-09-23T23:51:22.970Z,100871.72
2022-09-23T23:53:49.434Z,100871.09
2022-09-23T23:56:19.584Z,100864.63
2022-09-23T23:58:46.695Z,100865.97
